Time;durP1;ratioP1;P1;durP2;ratioP2;P2;SDS_P1;SDS_P2;PMS_P1;PMS_P2;Temp;Humidity;BMP_temperature;BMP_pressure;BME280_temperature;BME280_humidity;BME280_pressure;Samples;Min_cycle;Max_cycle;Signal;HPM_P1;HPM_P2
2022/12/18 00:01:28;;;;;;;49.90;16.08;;;;;;;-4.27;100.00;100197.91;4293290;33;20049;-75
2022/12/18 00:03:55;;;;;;;47.80;15.20;;;;;;;-4.39;100.00;100203.22;4295508;33;20078;-74
2022/12/18 00:06:25;;;;;;;55.92;15.95;;;;;;;-4.49;100.00;100201.44;4294929;33;20339;-75
2022/12/18 00:08:52;;;;;;;38.72;12.27;;;;;;;-4.47;100.00;100195.09;4294064;33;20127;-74
2022/12/18 00:11:21;;;;;;;39.60;14.05;;;;;;;-4.54;100.00;100204.44;4286120;33;20054;-76
2022/12/18 00:13:49;;;;;;;40.45;12.98;;;;;;;-4.41;100.00;100213.00;4289680;33;20506;-75
2022/12/18 00:16:20;;;;;;;40.63;14.00;;;;;;;-4.41;100.00;100205.12;4287138;33;20088;-75
2022/12/18 00:18:52;;;;;;;40.70;12.75;;;;;;;-4.29;100.00;100205.06;4281921;33;20139;-74
2022/12/18 00:21:19;;;;;;;52.70;16.17;;;;;;;-4.40;100.00;100212.06;4281949;33;20071;-74
2022/12/18 00:23:47;;;;;;;44.08;13.68;;;;;;;-4.34;100.00;100202.00;4282145;33;20049;-73
2022/12/18 00:26:20;;;;;;;45.28;16.10;;;;;;;-4.50;100.00;100205.88;4282818;33;20037;-74
2022/12/18 00:28:49;;;;;;;50.33;14.82;;;;;;;-4.33;100.00;100216.81;4281884;33;20077;-74
2022/12/18 00:31:19;;;;;;;45.35;14.63;;;;;;;-4.53;100.00;100206.13;4282123;33;20062;-75
2022/12/18 00:33:46;;;;;;;41.75;13.77;;;;;;;-4.40;100.00;100212.06;4281693;33;20045;-75
2022/12/18 00:36:17;;;;;;;40.60;12.88;;;;;;;-4.95;100.00;100179.66;4281207;33;20445;-74
2022/12/18 00:38:45;;;;;;;37.22;13.50;;;;;;;-4.56;100.00;100237.91;4281239;33;20064;-74
2022/12/18 00:41:13;;;;;;;45.53;14.60;;;;;;;-4.82;100.00;100201.41;4282205;33;20345;-75
2022/12/18 00:43:40;;;;;;;37.78;12.43;;;;;;;-4.64;100.00;100235.03;4254545;33;20045;-75
2022/12/18 00:46:06;;;;;;;50.17;14.00;;;;;;;-4.60;100.00;100252.25;4254516;33;20041;-74
2022/12/18 00:48:33;;;;;;;48.15;14.13;;;;;;;-4.64;100.00;100209.59;4253652;33;20071;-75
2022/12/18 00:50:59;;;;;;;40.55;14.50;;;;;;;-4.49;100.00;100257.47;4264358;33;20038;-75
2022/12/18 00:53:26;;;;;;;42.35;14.35;;;;;;;-4.49;100.00;100252.22;4268150;33;20124;-75
2022/12/18 00:55:52;;;;;;;45.85;13.75;;;;;;;-4.44;100.00;100254.50;4268163;33;20078;-75
2022/12/18 00:58:18;;;;;;;53.55;14.25;;;;;;;-4.71;100.00;100218.09;4254447;33;20353;-75
2022/12/18 03:02:22;;;;;;;38.80;13.43;;;;;;;-5.01;100.00;100391.16;4395047;27;20041;-75
2022/12/18 03:05:14;;;;;;;35.78;14.30;;;;;;;-5.21;100.00;100348.00;4296754;33;20063;-75
2022/12/18 03:07:48;;;;;;;30.15;11.65;;;;;;;-4.68;100.00;100375.56;4296925;33;20063;-75
2022/12/18 03:10:19;;;;;;;27.00;12.70;;;;;;;-4.69;100.00;100384.38;4264822;33;20168;-74
2022/12/18 03:12:53;;;;;;;39.60;13.75;;;;;;;-4.78;100.00;100386.75;4266675;33;20401;-74
2022/12/18 03:15:33;;;;;;;37.60;14.50;;;;;;;-4.92;100.00;100389.59;4266136;33;20054;-74
2022/12/18 03:18:08;;;;;;;15.80;8.05;;;;;;;-5.23;100.00;100349.91;4266038;33;20398;-74
2022/12/18 03:20:39;;;;;;;36.55;12.48;;;;;;;-4.87;100.00;100392.72;4252467;33;20056;-75
2022/12/18 03:23:16;;;;;;;33.28;12.93;;;;;;;-4.85;100.00;100396.09;4248781;33;20173;-73
2022/12/18 03:25:48;;;;;;;26.70;11.27;;;;;;;-4.71;100.00;100394.19;4249261;33;20041;-74
2022/12/18 03:28:21;;;;;;;30.55;11.60;;;;;;;-4.93;100.00;100404.53;4264817;33;20030;-75
2022/12/18 03:30:57;;;;;;;34.67;11.60;;;;;;;-5.04;100.00;100408.91;4256772;33;20405;-73
2022/12/18 03:33:37;;;;;;;46.55;15.05;;;;;;;-4.81;100.00;100408.03;4265372;33;20042;-75
2022/12/18 03:36:05;;;;;;;35.55;13.20;;;;;;;-4.81;100.00;100413.28;4265705;33;20037;-74
2022/12/18 03:38:32;;;;;;;41.20;14.15;;;;;;;-5.41;100.00;100372.28;4266359;33;20022;-75
2022/12/18 03:41:03;;;;;;;45.95;14.27;;;;;;;-4.89;100.00;100431.41;4269081;33;20404;-74
2022/12/18 03:43:49;;;;;;;33.10;12.68;;;;;;;-4.93;100.00;100435.22;4279918;33;20046;-75
2022/12/18 03:46:21;;;;;;;50.88;16.50;;;;;;;-4.83;100.00;100420.44;4280066;33;20063;-75
2022/12/18 03:48:55;;;;;;;40.05;13.88;;;;;;;-4.73;100.00;100443.41;4264869;33;20596;-74
2022/12/18 03:51:31;;;;;;;39.13;13.70;;;;;;;-5.05;100.00;100405.47;4265814;33;20054;-75
2022/12/18 03:54:02;;;;;;;40.25;13.68;;;;;;;-4.93;100.00;100445.72;4265853;33;20037;-74
2022/12/18 03:56:35;;;;;;;43.70;14.63;;;;;;;-5.09;100.00;100408.44;4263957;33;20067;-73
2022/12/18 03:59:04;;;;;;;44.58;14.40;;;;;;;-4.88;100.00;100414.72;4260736;33;20081;-75
2022/12/18 04:01:37;;;;;;;37.33;12.55;;;;;;;-4.62;100.00;100459.19;4250453;33;20038;-75
2022/12/18 04:04:06;;;;;;;30.27;11.93;;;;;;;-4.68;100.00;100451.78;4251229;33;20154;-75
2022/12/18 04:06:37;;;;;;;44.95;15.02;;;;;;;-5.13;100.00;100406.03;4250426;33;20043;-73
2022/12/18 04:09:04;;;;;;;47.57;15.13;;;;;;;-4.84;100.00;100450.28;4251920;33;20052;-75
2022/12/18 04:11:32;;;;;;;72.15;17.23;;;;;;;-5.03;100.00;100421.09;4251211;33;20056;-75
2022/12/18 04:13:59;;;;;;;43.25;13.80;;;;;;;-5.12;100.00;100397.22;4251727;33;20069;-75
2022/12/18 04:16:26;;;;;;;42.95;15.30;;;;;;;-4.84;100.00;100463.44;4250721;33;20038;-76
2022/12/18 04:18:53;;;;;;;41.47;13.35;;;;;;;-5.06;100.00;100434.47;4254723;33;20060;-74
2022/12/18 04:21:20;;;;;;;38.72;13.75;;;;;;;-5.08;100.00;100463.47;4295207;33;20457;-75
2022/12/18 04:23:47;;;;;;;42.72;15.43;;;;;;;-4.99;100.00;100464.59;4296885;33;20403;-76
2022/12/18 04:26:14;;;;;;;45.72;14.87;;;;;;;-4.88;100.00;100472.50;4296170;33;20045;-76
2022/12/18 04:28:41;;;;;;;44.30;15.18;;;;;;;-4.89;100.00;100468.19;4294383;33;20055;-76
2022/12/18 04:31:09;;;;;;;48.40;17.48;;;;;;;-4.79;100.00;100479.69;4294472;33;20049;-74
2022/12/18 04:33:35;;;;;;;47.17;16.25;;;;;;;-4.65;100.00;100488.34;4280529;33;20033;-76
2022/12/18 04:36:03;;;;;;;51.90;16.75;;;;;;;-4.75;100.00;100468.00;4293997;33;20426;-76
2022/12/18 04:38:30;;;;;;;31.80;11.68;;;;;;;-4.59;100.00;100485.25;4294771;33;20364;-76
2022/12/18 04:40:58;;;;;;;36.58;13.18;;;;;;;-5.19;100.00;100480.00;4286681;33;20073;-75
2022/12/18 04:43:25;;;;;;;44.83;15.65;;;;;;;-5.11;100.00;100503.94;4279389;33;20045;-73
2022/12/18 04:45:51;;;;;;;36.38;13.68;;;;;;;-4.78;100.00;100507.66;4283988;33;20374;-75
2022/12/18 04:48:18;;;;;;;35.28;12.73;;;;;;;-4.92;100.00;100502.59;4265958;33;20513;-76
2022/12/18 04:50:44;;;;;;;44.67;16.73;;;;;;;-5.09;100.00;100471.47;4259485;33;20046;-76
2022/12/18 04:53:11;;;;;;;41.70;14.38;;;;;;;-4.66;100.00;100505.06;4235367;33;20027;-74
2022/12/18 04:55:37;;;;;;;34.55;11.27;;;;;;;-5.36;100.00;100456.78;4220047;34;20072;-75
2022/12/18 04:58:03;;;;;;;40.65;13.93;;;;;;;-5.23;100.00;100496.97;4223482;34;20232;-74
2022/12/18 05:00:30;;;;;;;27.62;9.77;;;;;;;-5.21;100.00;100474.03;4211746;34;20873;-75
2022/12/18 05:02:56;;;;;;;45.33;14.43;;;;;;;-5.27;100.00;100492.88;4182664;34;20040;-74
2022/12/18 05:05:23;;;;;;;41.35;15.38;;;;;;;-5.28;100.00;100488.59;4184142;34;20051;-75
2022/12/18 05:07:49;;;;;;;35.08;12.93;;;;;;;-4.78;100.00;100518.16;4170340;34;20044;-75
2022/12/18 05:10:16;;;;;;;47.78;15.27;;;;;;;-5.15;100.00;100525.31;4167678;34;20410;-73
2022/12/18 05:13:01;;;;;;;37.53;13.32;;;;;;;-4.99;100.00;100535.53;4169820;34;20081;-75
2022/12/18 05:15:31;;;;;;;38.17;12.32;;;;;;;-5.52;100.00;100471.03;4170445;34;20414;-75
2022/12/18 05:17:58;;;;;;;57.05;16.52;;;;;;;-5.19;100.00;100532.53;4169712;34;20064;-74
2022/12/18 05:20:26;;;;;;;31.10;12.30;;;;;;;-5.40;100.00;100484.22;4156781;34;20074;-74
2022/12/18 05:22:53;;;;;;;41.80;14.20;;;;;;;-5.23;100.00;100533.72;4155901;34;20078;-74
2022/12/18 05:25:20;;;;;;;50.10;16.30;;;;;;;-5.41;100.00;100483.38;4192156;34;20096;-75
2022/12/18 05:27:47;;;;;;;43.40;14.70;;;;;;;-5.06;100.00;100535.13;4201519;34;20088;-75
2022/12/18 05:30:15;;;;;;;40.42;14.70;;;;;;;-5.30;100.00;100535.09;4211704;34;20101;-74
2022/12/18 05:32:42;;;;;;;52.05;18.00;;;;;;;-5.64;100.00;100487.66;4222487;34;20056;-73
2022/12/18 05:35:10;;;;;;;71.07;18.15;;;;;;;-5.06;100.00;100544.78;4238990;33;20927;-73
2022/12/18 05:37:37;;;;;;;57.30;19.25;;;;;;;-4.83;100.00;100551.84;4252633;33;20068;-74
2022/12/18 05:40:04;;;;;;;54.05;16.65;;;;;;;-5.41;100.00;100503.53;4253338;33;20084;-73
2022/12/18 05:42:31;;;;;;;47.30;16.05;;;;;;;-4.87;100.00;100539.84;4253860;33;20038;-74
2022/12/18 05:44:57;;;;;;;57.15;18.98;;;;;;;-4.93;100.00;100535.06;4267234;33;20349;-72
2022/12/18 05:47:24;;;;;;;48.87;15.48;;;;;;;-4.96;100.00;100548.44;4296780;33;20041;-73
2022/12/18 05:49:50;;;;;;;51.75;17.70;;;;;;;-5.04;100.00;100537.63;4298573;33;20100;-73
2022/12/18 05:52:17;;;;;;;47.83;17.83;;;;;;;-4.83;100.00;100557.09;4297943;33;20041;-74
2022/12/18 05:54:43;;;;;;;54.83;18.00;;;;;;;-5.12;100.00;100536.41;4298217;33;20045;-74
2022/12/18 05:57:10;;;;;;;55.58;17.85;;;;;;;-4.83;100.00;100557.09;4298228;33;20104;-74
2022/12/18 05:59:36;;;;;;;53.28;17.80;;;;;;;-5.32;100.00;100508.13;4297510;33;20424;-74
2022/12/18 06:02:03;;;;;;;59.30;16.55;;;;;;;-5.00;100.00;100554.84;4295737;33;20045;-74
2022/12/18 06:04:32;;;;;;;58.08;17.87;;;;;;;-5.68;100.00;100481.78;4297994;33;20947;-73
2022/12/18 06:06:58;;;;;;;38.25;14.60;;;;;;;-5.07;100.00;100548.34;4296754;33;20088;-74
2022/12/18 06:09:25;;;;;;;28.45;10.20;;;;;;;-5.33;100.00;100565.06;4297593;33;20070;-74
2022/12/18 06:11:52;;;;;;;58.75;18.58;;;;;;;-5.58;100.00;100523.12;4297709;33;20048;-73
2022/12/18 06:14:19;;;;;;;26.02;11.32;;;;;;;-5.56;100.00;100574.56;4296240;33;20088;-74
2022/12/18 06:16:45;;;;;;;56.03;18.33;;;;;;;-5.66;100.00;100570.91;4256793;33;20042;-74
2022/12/18 06:19:15;;;;;;;57.10;18.95;;;;;;;-5.28;100.00;100588.38;4253182;33;20049;-75
2022/12/18 06:21:50;;;;;;;50.50;17.77;;;;;;;-5.21;100.00;100589.59;4252904;33;20077;-75
2022/12/18 06:24:17;;;;;;;55.40;17.33;;;;;;;-5.42;100.00;100585.87;4250823;33;20424;-73
2022/12/18 06:26:43;;;;;;;52.22;17.90;;;;;;;-5.33;100.00;100595.72;4250936;33;20405;-73
2022/12/18 06:29:15;;;;;;;55.15;19.02;;;;;;;-5.23;100.00;100616.91;4238005;33;20054;-73
2022/12/18 06:31:42;;;;;;;50.40;19.58;;;;;;;-5.16;100.00;100612.91;4238217;33;20056;-74
2022/12/18 06:34:14;;;;;;;35.33;15.13;;;;;;;-5.10;100.00;100615.09;4210525;34;20175;-75
2022/12/18 06:36:40;;;;;;;47.20;17.30;;;;;;;-5.57;100.00;100604.38;4211993;34;20080;-73
2022/12/18 06:39:07;;;;;;;54.63;18.87;;;;;;;-5.40;100.00;100618.94;4222978;34;20493;-74
2022/12/18 06:41:33;;;;;;;57.62;20.10;;;;;;;-5.21;100.00;100626.38;4213971;34;20105;-75
2022/12/18 06:44:00;;;;;;;64.55;19.67;;;;;;;-4.96;100.00;100628.09;4219020;34;20048;-75
2022/12/18 06:46:26;;;;;;;53.08;16.80;;;;;;;-5.22;100.00;100611.53;4224119;34;20035;-80
2022/12/18 06:48:53;;;;;;;53.13;15.98;;;;;;;-5.32;100.00;100639.41;4235426;33;20091;-79
2022/12/18 06:51:21;;;;;;;65.10;19.87;;;;;;;-5.69;100.00;100610.50;4251378;33;20080;-80
2022/12/18 06:53:48;;;;;;;48.83;15.93;;;;;;;-5.34;100.00;100643.94;4267824;33;20046;-80
2022/12/18 06:56:14;;;;;;;59.08;19.37;;;;;;;-5.40;100.00;100652.25;4252013;33;20053;-80
2022/12/18 06:58:41;;;;;;;51.08;15.13;;;;;;;-5.37;100.00;100652.03;4239919;33;20043;-78
2022/12/18 07:01:10;;;;;;;31.55;9.82;;;;;;;-5.45;100.00;100664.84;4231208;33;20042;-78
2022/12/18 07:03:39;;;;;;;43.95;14.60;;;;;;;-5.57;100.00;100677.84;4225690;33;20097;-78
2022/12/18 07:06:06;;;;;;;50.08;16.20;;;;;;;-5.45;100.00;100638.59;4250624;33;20046;-77
2022/12/18 07:08:33;;;;;;;53.42;18.80;;;;;;;-5.48;100.00;100650.16;4255533;33;20045;-77
2022/12/18 07:11:02;;;;;;;80.12;18.83;;;;;;;-5.15;100.00;100673.22;4256013;33;20085;-77
2022/12/18 07:13:28;;;;;;;23.02;9.05;;;;;;;-5.33;100.00;100691.09;4257810;33;20408;-79
2022/12/18 07:15:55;;;;;;;51.85;13.82;;;;;;;-6.04;100.00;100624.25;4255004;33;20081;-77
2022/12/18 07:18:21;;;;;;;61.78;20.10;;;;;;;-5.59;100.00;100692.88;4252405;33;20094;-77
2022/12/18 07:20:48;;;;;;;59.00;14.87;;;;;;;-5.51;100.00;100682.69;4250471;33;20054;-77
2022/12/18 07:23:14;;;;;;;39.97;14.98;;;;;;;-5.74;100.00;100659.81;4247538;33;20101;-77
2022/12/18 07:25:41;;;;;;;26.10;8.73;;;;;;;-5.55;100.00;100706.62;4248730;33;20034;-78
2022/12/18 07:28:07;;;;;;;66.25;20.52;;;;;;;-5.78;100.00;100710.81;4259336;33;20038;-77
2022/12/18 07:30:37;;;;;;;45.53;15.32;;;;;;;-5.26;100.00;100717.78;4263781;33;20037;-76
2022/12/18 07:33:03;;;;;;;56.28;16.73;;;;;;;-5.70;100.00;100656.88;4250136;33;20034;-78
2022/12/18 07:35:30;;;;;;;32.45;11.27;;;;;;;-5.84;100.00;100649.09;4249747;33;20442;-77
2022/12/18 07:37:57;;;;;;;19.30;5.93;;;;;;;-5.78;100.00;100721.31;4249612;33;20043;-78
2022/12/18 07:40:24;;;;;;;51.53;16.60;;;;;;;-6.28;100.00;100703.59;4253783;33;20038;-77
2022/12/18 07:42:50;;;;;;;35.72;13.62;;;;;;;-5.42;100.00;100711.91;4251658;33;20097;-77
2022/12/18 07:45:17;;;;;;;61.17;17.00;;;;;;;-5.36;100.00;100716.72;4249487;33;20335;-77
2022/12/18 07:47:43;;;;;;;48.30;16.10;;;;;;;-6.05;100.00;100668.03;4255339;33;20100;-78
2022/12/18 07:50:10;;;;;;;45.08;14.45;;;;;;;-5.68;100.00;100669.88;4257347;33;20050;-77
2022/12/18 07:52:37;;;;;;;54.90;15.80;;;;;;;-5.78;100.00;100663.59;4256798;33;20034;-77
2022/12/18 07:55:04;;;;;;;37.83;14.75;;;;;;;-5.05;100.00;100722.47;4259373;33;20029;-77
2022/12/18 07:57:31;;;;;;;46.55;17.58;;;;;;;-5.54;100.00;100709.16;4258334;33;20179;-77
2022/12/18 07:59:57;;;;;;;61.78;16.83;;;;;;;-5.61;100.00;100686.91;4287032;33;20049;-78
2022/12/18 08:02:24;;;;;;;55.22;17.05;;;;;;;-5.71;100.00;100667.47;4259317;33;20066;-76
2022/12/18 08:04:50;;;;;;;41.20;13.62;;;;;;;-5.45;100.00;100728.69;4275532;33;20026;-78
2022/12/18 08:07:17;;;;;;;49.05;15.32;;;;;;;-5.80;100.00;100684.69;4265560;33;20419;-74
2022/12/18 08:09:43;;;;;;;13.20;3.95;;;;;;;-5.57;100.00;100732.97;4235428;33;20045;-76
2022/12/18 08:12:10;;;;;;;28.90;13.55;;;;;;;-6.02;100.00;100735.16;4223088;33;20094;-77
2022/12/18 08:14:36;;;;;;;61.47;18.20;;;;;;;-6.18;100.00;100713.50;4221587;33;20119;-75
2022/12/18 08:17:02;;;;;;;57.72;15.30;;;;;;;-5.69;100.00;100746.94;4229106;33;20046;-76
2022/12/18 08:19:29;;;;;;;36.03;15.00;;;;;;;-5.56;100.00;100742.53;4237355;33;20488;-77
2022/12/18 08:21:56;;;;;;;54.58;18.23;;;;;;;-5.70;100.00;100755.75;4217982;33;20249;-76
2022/12/18 08:24:23;;;;;;;60.53;17.52;;;;;;;-5.73;100.00;100719.22;4218394;34;20060;-77
2022/12/18 08:26:50;;;;;;;65.90;19.40;;;;;;;-5.50;100.00;100710.63;4211884;34;20043;-76
2022/12/18 08:29:16;;;;;;;63.42;20.42;;;;;;;-5.36;100.00;100716.72;4220242;33;20072;-77
2022/12/18 08:31:43;;;;;;;51.60;19.70;;;;;;;-5.23;100.00;100754.31;4225131;33;20076;-76
2022/12/18 08:34:09;;;;;;;44.55;16.80;;;;;;;-5.35;100.00;100755.16;4235133;33;20038;-77
2022/12/18 08:36:36;;;;;;;49.53;17.08;;;;;;;-5.66;100.00;100720.50;4231314;33;20047;-78
2022/12/18 08:39:02;;;;;;;26.40;10.15;;;;;;;-5.62;100.00;100750.81;4234916;33;20042;-78
2022/12/18 08:41:29;;;;;;;52.70;15.13;;;;;;;-5.56;100.00;100768.78;4255505;33;20056;-79
2022/12/18 08:46:43;;;;;;;66.10;17.90;;;;;;;-5.52;100.00;100754.53;4250499;33;20496;-82
2022/12/18 08:49:10;;;;;;;62.58;19.25;;;;;;;-5.35;100.00;100755.16;4254258;33;20420;-79
2022/12/18 08:51:38;;;;;;;45.12;15.02;;;;;;;-5.45;100.00;100727.88;4253553;33;20034;-79
2022/12/18 08:54:05;;;;;;;48.60;16.58;;;;;;;-5.38;100.00;100729.13;4251037;33;20425;-78
2022/12/18 08:56:33;;;;;;;21.10;10.25;;;;;;;-5.32;100.00;100775.97;4253541;33;20076;-78
2022/12/18 08:58:59;;;;;;;65.78;18.83;;;;;;;-5.72;100.00;100783.88;4253980;33;20093;-77
2022/12/18 09:01:26;;;;;;;46.65;15.73;;;;;;;-5.34;100.00;100751.59;4252564;33;20087;-78
2022/12/18 09:03:52;;;;;;;36.30;13.45;;;;;;;-5.72;100.00;100783.88;4252935;33;20042;-79
2022/12/18 09:06:20;;;;;;;34.13;13.48;;;;;;;-5.85;100.00;100789.94;4272141;33;20580;-79
2022/12/18 09:08:47;;;;;;;71.30;20.50;;;;;;;-5.91;100.00;100794.75;4266839;33;20054;-76
2022/12/18 09:11:20;;;;;;;70.00;18.67;;;;;;;-5.54;100.00;100801.03;4278780;33;20441;-76
2022/12/18 09:13:46;;;;;;;78.25;19.80;;;;;;;-5.33;100.00;100798.75;4267520;33;20110;-76
2022/12/18 09:16:13;;;;;;;61.90;20.83;;;;;;;-5.42;100.00;100764.41;4269931;33;20058;-76
2022/12/18 09:18:39;;;;;;;70.30;20.27;;;;;;;-4.81;100.00;100807.47;4268706;33;20502;-76
2022/12/18 09:21:20;;;;;;;64.32;19.33;;;;;;;-4.69;100.00;100802.28;4265287;33;20057;-76
2022/12/18 09:23:50;;;;;;;59.42;18.15;;;;;;;-5.09;100.00;100757.78;4264320;33;20053;-76
2022/12/18 09:26:17;;;;;;;59.40;19.10;;;;;;;-5.35;100.00;100765.66;4265466;33;20067;-75
2022/12/18 09:28:44;;;;;;;48.28;18.08;;;;;;;-4.82;100.00;100811.06;4265764;33;20053;-76
2022/12/18 09:31:16;;;;;;;54.80;16.60;;;;;;;-4.99;100.00;100809.59;4261734;33;20067;-75
2022/12/18 09:33:44;;;;;;;48.47;16.95;;;;;;;-4.90;100.00;100800.22;4262643;33;20081;-75
2022/12/18 09:36:13;;;;;;;41.95;13.30;;;;;;;-5.33;100.00;100774.28;4264617;33;20072;-76
2022/12/18 09:38:40;;;;;;;59.63;16.95;;;;;;;-5.40;100.00;100815.03;4234051;33;20097;-76
2022/12/18 09:41:44;;;;;;;52.13;18.60;;;;;;;-5.41;100.00;100802.84;4249651;33;20030;-76
2022/12/18 09:44:25;;;;;;;67.82;17.65;;;;;;;-5.22;100.00;100819.03;4250088;33;20109;-76
2022/12/18 09:47:14;;;;;;;73.80;18.70;;;;;;;-5.11;100.00;100818.31;4256612;33;20046;-76
2022/12/18 09:49:44;;;;;;;61.17;18.65;;;;;;;-4.98;100.00;100811.28;4248765;33;20423;-75
2022/12/18 09:52:10;;;;;;;43.65;15.02;;;;;;;-4.79;100.00;100810.00;4249523;33;20057;-75
2022/12/18 09:54:53;;;;;;;60.50;18.83;;;;;;;-5.66;100.00;100809.72;4216535;33;20068;-78
2022/12/18 09:57:24;;;;;;;65.32;20.77;;;;;;;-4.98;100.00;100810.41;4201810;34;20123;-76
2022/12/18 09:59:58;;;;;;;72.05;18.02;;;;;;;-5.00;100.00;100771.12;4205761;34;20447;-76
2022/12/18 10:02:29;;;;;;;63.08;18.98;;;;;;;-4.55;100.00;100802.16;4203712;34;20215;-76
2022/12/18 10:05:03;;;;;;;59.58;18.15;;;;;;;-4.86;100.00;100793.81;4206844;34;20177;-75
2022/12/18 10:07:48;;;;;;;62.03;19.17;;;;;;;-4.71;100.00;100802.41;4197194;34;20082;-73
2022/12/18 10:10:33;;;;;;;68.85;21.62;;;;;;;-4.71;100.00;100806.81;4225407;33;20042;-76
2022/12/18 10:13:15;;;;;;;51.95;17.77;;;;;;;-4.95;100.00;100805.78;4235073;33;20039;-76
2022/12/18 10:15:58;;;;;;;59.83;16.23;;;;;;;-5.06;100.00;100803.06;4235243;33;20031;-76
2022/12/18 10:18:39;;;;;;;28.60;11.30;;;;;;;-5.32;100.00;100781.22;4236571;33;20209;-77
2022/12/18 10:21:46;;;;;;;57.50;18.35;;;;;;;-5.80;100.00;100802.75;4230258;33;20102;-76
2022/12/18 10:24:39;;;;;;;51.88;13.55;;;;;;;-5.45;100.00;100811.88;4244921;33;20080;-76
2022/12/18 10:27:17;;;;;;;65.47;18.52;;;;;;;-5.82;100.00;100807.28;4263477;33;20030;-76
2022/12/18 10:29:45;;;;;;;26.42;11.27;;;;;;;-5.45;100.00;100817.97;4260654;33;20057;-76
2022/12/18 10:32:17;;;;;;;38.08;14.80;;;;;;;-5.73;100.00;100805.81;4248991;33;20063;-76
2022/12/18 10:34:46;;;;;;;58.90;18.25;;;;;;;-5.56;100.00;100808.16;4250494;33;20046;-80
2022/12/18 10:37:18;;;;;;;67.32;17.33;;;;;;;-5.53;100.00;100818.47;4251435;33;20170;-77
2022/12/18 10:40:04;;;;;;;42.92;13.05;;;;;;;-5.47;100.00;100815.44;4249637;33;20548;-74
2022/12/18 10:42:31;;;;;;;52.72;14.52;;;;;;;-5.64;100.00;100818.34;4248661;33;20050;-76
2022/12/18 10:45:08;;;;;;;57.85;17.87;;;;;;;-6.30;100.00;100826.09;4250991;33;20045;-77
2022/12/18 10:47:35;;;;;;;50.03;15.45;;;;;;;-7.09;100.00;100627.59;4247358;33;20067;-76
2022/12/18 10:50:03;;;;;;;72.57;19.73;;;;;;;-5.86;100.00;100818.91;4261602;33;20061;-76
2022/12/18 10:52:29;;;;;;;54.97;18.48;;;;;;;-5.55;100.00;100832.63;4263479;33;20231;-74
2022/12/18 10:55:03;;;;;;;54.78;19.20;;;;;;;-5.64;100.00;100775.50;4263864;33;20440;-75
2022/12/18 10:57:33;;;;;;;48.90;15.05;;;;;;;-5.22;100.00;100819.03;4262234;33;20471;-76
2022/12/18 11:00:27;;;;;;;62.72;18.95;;;;;;;-5.27;100.00;100825.53;4263772;33;20030;-74
2022/12/18 11:02:55;;;;;;;68.40;19.73;;;;;;;-5.26;100.00;100822.81;4263024;33;20050;-76
2022/12/18 11:05:30;;;;;;;61.92;18.58;;;;;;;-5.38;100.00;100818.38;4261863;33;20088;-75
2022/12/18 11:07:58;;;;;;;61.50;19.33;;;;;;;-5.33;100.00;100816.28;4247554;33;20449;-75
2022/12/18 11:10:31;;;;;;;77.75;18.98;;;;;;;-5.15;100.00;100820.31;4246582;33;20042;-75
2022/12/18 11:13:22;;;;;;;59.65;19.60;;;;;;;-5.48;100.00;100782.25;4257567;33;20055;-76
2022/12/18 11:15:50;;;;;;;57.05;17.60;;;;;;;-5.35;100.00;100823.44;4276980;33;20089;-75
2022/12/18 11:18:23;;;;;;;61.35;18.70;;;;;;;-5.67;100.00;100815.91;4278570;33;20079;-75
2022/12/18 11:20:57;;;;;;;67.47;21.98;;;;;;;-5.79;100.00;100803.59;4278798;33;20045;-76
2022/12/18 11:23:24;;;;;;;74.80;21.20;;;;;;;-5.59;100.00;100779.50;4250914;33;20060;-75
2022/12/18 11:25:55;;;;;;;52.72;17.60;;;;;;;-6.08;100.00;100788.00;4248670;33;20334;-75
2022/12/18 11:28:43;;;;;;;57.65;16.95;;;;;;;-5.66;100.00;100778.25;4233448;33;20094;-75
2022/12/18 11:31:22;;;;;;;60.90;16.58;;;;;;;-5.86;100.00;100771.66;4236047;33;20051;-76
2022/12/18 11:33:57;;;;;;;55.25;17.33;;;;;;;-5.77;100.00;100817.47;4234947;33;20049;-76
2022/12/18 11:36:28;;;;;;;62.13;16.67;;;;;;;-5.76;100.00;100761.41;4235143;33;20046;-76
2022/12/18 11:38:59;;;;;;;49.95;17.17;;;;;;;-5.56;100.00;100789.78;4234469;33;20062;-77
2022/12/18 11:44:30;;;;;;;73.87;19.37;;;;;;;-5.15;100.00;100820.31;4232270;33;20129;-76
2022/12/18 11:47:35;;;;;;;68.10;22.35;;;;;;;-5.20;100.00;100822.41;4234625;33;20127;-74
2022/12/18 11:50:10;;;;;;;62.97;17.90;;;;;;;-5.19;100.00;100828.50;4229905;33;20123;-74
2022/12/18 11:52:40;;;;;;;70.03;20.12;;;;;;;-5.47;100.00;100810.19;4219212;33;20101;-75
2022/12/18 11:55:15;;;;;;;73.90;22.00;;;;;;;-5.15;100.00;100808.97;4253687;33;20034;-76
2022/12/18 11:58:07;;;;;;;61.55;22.08;;;;;;;-4.81;100.00;100796.94;4249964;33;20050;-76
2022/12/18 12:03:44;;;;;;;62.85;21.83;;;;;;;-4.71;100.00;100806.81;4268274;33;20665;-74
2022/12/18 12:06:28;;;;;;;62.62;19.10;;;;;;;-5.78;100.00;100774.62;4272651;33;20539;-75
2022/12/18 12:09:11;;;;;;;62.22;20.35;;;;;;;-5.49;100.00;100827.84;4271916;33;20461;-76
2022/12/18 12:12:12;;;;;;;55.33;14.77;;;;;;;-5.61;100.00;100831.25;4268754;33;20440;-75
2022/12/18 12:14:57;;;;;;;37.08;14.02;;;;;;;-5.51;100.00;100834.13;4268647;33;20364;-74
2022/12/18 12:17:45;;;;;;;43.17;17.23;;;;;;;-6.17;100.00;100841.03;4275994;33;20383;-75
2022/12/18 12:20:24;;;;;;;70.10;22.08;;;;;;;-6.15;100.00;100844.41;4258220;33;20046;-75
2022/12/18 12:23:00;;;;;;;53.10;17.30;;;;;;;-6.41;100.00;100850.34;4260385;33;20112;-75
2022/12/18 12:26:09;;;;;;;41.25;14.63;;;;;;;-6.51;100.00;100851.00;4259640;33;20441;-73
2022/12/18 12:28:56;;;;;;;44.35;14.52;;;;;;;-6.52;100.00;100859.84;4259946;33;20133;-75
2022/12/18 12:32:11;;;;;;;26.45;10.60;;;;;;;-6.53;100.00;100813.59;4262433;33;21001;-76
2022/12/18 12:35:00;;;;;;;52.53;14.45;;;;;;;-6.47;100.00;100844.66;4225795;34;20046;-77
2022/12/18 12:37:47;;;;;;;47.70;16.85;;;;;;;-5.95;100.00;100853.59;4219123;34;20437;-76
2022/12/18 12:40:21;;;;;;;66.95;20.33;;;;;;;-5.82;100.00;100809.91;4211632;34;20044;-75
2022/12/18 12:43:13;;;;;;;60.63;16.33;;;;;;;-5.77;100.00;100859.47;4211577;34;20414;-75
2022/12/18 12:46:04;;;;;;;46.67;15.10;;;;;;;-6.05;100.00;100866.47;4195256;34;20343;-75
2022/12/18 12:48:46;;;;;;;52.13;18.02;;;;;;;-5.99;100.00;100866.09;4197188;34;20069;-76
2022/12/18 12:51:25;;;;;;;72.87;21.70;;;;;;;-5.97;100.00;100863.38;4194422;34;20167;-76
2022/12/18 12:53:56;;;;;;;53.63;18.52;;;;;;;-5.79;100.00;100872.69;4182357;34;20102;-76
2022/12/18 12:56:24;;;;;;;53.33;17.15;;;;;;;-6.15;100.00;100863.59;4181138;34;20077;-75
2022/12/18 12:59:12;;;;;;;57.97;18.58;;;;;;;-6.51;100.00;100833.53;4181880;34;20119;-74
2022/12/18 13:01:59;;;;;;;59.67;20.42;;;;;;;-6.28;100.00;100887.13;4175762;34;20647;-75
2022/12/18 13:04:39;;;;;;;61.25;19.10;;;;;;;-5.80;100.00;100880.66;4180955;34;20094;-75
2022/12/18 13:07:33;;;;;;;55.80;19.10;;;;;;;-5.99;100.00;100887.09;4224123;33;20066;-75
2022/12/18 13:10:25;;;;;;;45.88;15.95;;;;;;;-5.76;100.00;100882.13;4205735;33;20169;-75
2022/12/18 13:12:56;;;;;;;50.85;16.58;;;;;;;-6.18;100.00;100891.81;4219599;33;20121;-75
2022/12/18 13:15:27;;;;;;;55.53;19.30;;;;;;;-6.39;100.00;100890.41;4193879;34;20443;-75
2022/12/18 13:18:09;;;;;;;57.40;19.25;;;;;;;-6.17;100.00;100888.22;4201923;34;20040;-73
2022/12/18 13:20:43;;;;;;;29.05;12.85;;;;;;;-6.07;100.00;100879.69;4209574;34;20065;-78
2022/12/18 13:23:31;;;;;;;60.95;19.33;;;;;;;-6.25;100.00;100876.47;4210389;34;20100;-77
2022/12/18 13:26:10;;;;;;;55.92;18.02;;;;;;;-6.32;100.00;100883.00;4223404;34;20065;-79
2022/12/18 13:28:45;;;;;;;59.97;19.52;;;;;;;-6.05;100.00;100895.34;4225210;33;20039;-78
2022/12/18 13:31:41;;;;;;;71.20;19.50;;;;;;;-5.93;100.00;100894.53;4225945;33;20072;-77
2022/12/18 13:34:23;;;;;;;53.45;18.98;;;;;;;-6.04;100.00;100884.75;4222985;33;20051;-77